Time;durP1;ratioP1;P1;durP2;ratioP2;P2;SDS_P1;SDS_P2;PMS_P1;PMS_P2;Temp;Humidity;BMP_temperature;BMP_pressure;BME280_temperature;BME280_humidity;BME280_pressure;Samples;Min_cycle;Max_cycle;Signal;HPM_P1;HPM_P2
2021/12/23 00:02:05;;;;;;;59.00;26.50;;;-2.20;99.90;;;;;;4965239;28;20038;-77
2021/12/23 00:04:33;;;;;;;48.25;25.27;;;-2.20;99.90;;;;;;4933265;28;20054;-77
2021/12/23 00:06:59;;;;;;;42.75;23.40;;;-2.10;99.90;;;;;;4948708;28;20054;-77
2021/12/23 00:09:43;;;;;;;51.28;25.55;;;-2.10;99.90;;;;;;4933428;28;20054;-78
2021/12/23 00:12:10;;;;;;;48.13;26.20;;;-2.00;99.90;;;;;;4969301;28;20058;-78
2021/12/23 00:14:38;;;;;;;51.28;26.83;;;-2.00;99.90;;;;;;4950370;28;20108;-77
2021/12/23 00:25:20;;;;;;;50.08;28.00;;;-2.00;99.90;;;;;;4996917;28;20085;-77
2021/12/23 00:27:47;;;;;;;65.63;28.73;;;-2.00;99.90;;;;;;4954798;28;20059;-77
2021/12/23 00:30:14;;;;;;;53.03;27.42;;;-2.00;99.90;;;;;;4951032;28;20055;-76
2021/12/23 00:32:41;;;;;;;51.83;27.55;;;-2.00;99.90;;;;;;4986941;28;20073;-76
2021/12/23 00:35:09;;;;;;;43.95;23.73;;;-2.00;99.90;;;;;;4970522;28;20082;-77
2021/12/23 00:37:40;;;;;;;49.50;25.83;;;-2.00;99.90;;;;;;4971659;28;20090;-77
2021/12/23 00:40:11;;;;;;;46.20;27.13;;;-1.90;99.90;;;;;;4971593;28;20034;-76
2021/12/23 00:42:38;;;;;;;56.97;26.90;;;-2.00;99.90;;;;;;4988508;28;20046;-76
2021/12/23 00:45:05;;;;;;;48.58;26.33;;;-2.00;99.90;;;;;;4972204;28;20065;-76
2021/12/23 00:47:32;;;;;;;57.75;27.23;;;-2.00;99.90;;;;;;4988174;28;20034;-76
2021/12/23 00:49:59;;;;;;;47.75;26.30;;;-2.00;99.90;;;;;;4963383;28;20082;-76
2021/12/23 00:52:31;;;;;;;40.25;22.73;;;-2.10;99.90;;;;;;4988198;28;20678;-76
2021/12/23 00:54:58;;;;;;;53.05;28.77;;;-2.10;99.90;;;;;;4969215;28;20026;-77
2021/12/23 00:57:28;;;;;;;54.33;28.58;;;-2.10;99.90;;;;;;4989452;28;20042;-76
2021/12/23 00:59:56;;;;;;;54.65;30.33;;;-2.00;99.90;;;;;;4990168;28;20047;-76
2021/12/23 01:02:27;;;;;;;49.35;26.48;;;-2.00;99.90;;;;;;4958298;28;20047;-77
2021/12/23 01:04:54;;;;;;;52.13;27.67;;;-2.00;99.90;;;;;;4950063;28;20049;-78
2021/12/23 01:07:20;;;;;;;45.83;26.65;;;-2.00;99.90;;;;;;4966133;28;20230;-78
2021/12/23 01:09:47;;;;;;;47.50;25.38;;;-2.00;99.90;;;;;;4949862;28;20113;-77
2021/12/23 01:12:19;;;;;;;51.13;28.08;;;-2.00;99.90;;;;;;4966439;28;20054;-79
2021/12/23 01:17:52;;;;;;;54.88;28.20;;;-2.10;99.90;;;;;;4980217;28;20447;-77
2021/12/23 01:20:29;;;;;;;55.78;27.77;;;-2.00;99.90;;;;;;4984830;28;20097;-78
2021/12/23 01:23:05;;;;;;;43.45;23.15;;;-2.00;99.90;;;;;;4953088;28;20053;-78
2021/12/23 01:25:33;;;;;;;58.15;30.10;;;-2.00;99.90;;;;;;4968243;28;20528;-79
2021/12/23 01:28:00;;;;;;;50.10;28.73;;;-2.00;99.90;;;;;;4964713;28;20051;-79
2021/12/23 01:30:27;;;;;;;49.53;23.92;;;-2.00;99.90;;;;;;4966910;28;20047;-78
2021/12/23 01:32:56;;;;;;;51.83;28.95;;;-2.00;99.90;;;;;;4966635;28;20051;-78
2021/12/23 01:35:25;;;;;;;44.38;23.23;;;-2.00;99.90;;;;;;4948527;28;20192;-76
2021/12/23 01:37:52;;;;;;;50.20;28.67;;;-1.90;99.90;;;;;;4974400;28;20086;-76
2021/12/23 01:40:20;;;;;;;51.47;28.00;;;-1.90;99.90;;;;;;4981626;28;20050;-77
2021/12/23 01:42:47;;;;;;;48.53;25.85;;;-1.90;99.90;;;;;;4970437;28;20159;-78
2021/12/23 01:45:17;;;;;;;40.22;21.23;;;-1.80;99.90;;;;;;4971216;28;20050;-77
2021/12/23 01:47:44;;;;;;;45.15;26.05;;;-1.80;99.90;;;;;;4971331;28;20077;-77
2021/12/23 01:50:14;;;;;;;46.08;27.25;;;-1.80;99.90;;;;;;4974873;28;20500;-77
2021/12/23 01:52:42;;;;;;;50.28;27.90;;;-1.80;99.90;;;;;;4982402;28;20077;-76
2021/12/23 01:55:10;;;;;;;48.85;26.50;;;-1.80;99.90;;;;;;4988794;28;20515;-78
2021/12/23 01:57:40;;;;;;;53.15;28.27;;;-1.80;99.90;;;;;;4972445;28;20073;-77
2021/12/23 02:00:14;;;;;;;49.05;27.65;;;-1.70;99.90;;;;;;4971788;28;20050;-76
2021/12/23 02:02:41;;;;;;;52.60;26.50;;;-1.80;99.90;;;;;;4973614;28;20050;-77
2021/12/23 02:05:09;;;;;;;57.63;28.23;;;-1.80;99.90;;;;;;4975128;28;20117;-77
2021/12/23 02:07:36;;;;;;;57.40;28.90;;;-1.80;99.90;;;;;;4972198;28;20046;-77
2021/12/23 02:10:06;;;;;;;48.42;26.98;;;-1.80;99.90;;;;;;4988905;28;20074;-77
2021/12/23 02:12:33;;;;;;;53.67;27.45;;;-1.80;99.90;;;;;;4969787;28;20050;-77
2021/12/23 02:15:00;;;;;;;53.15;25.58;;;-1.70;99.90;;;;;;4990242;28;20553;-77
2021/12/23 02:17:27;;;;;;;52.97;28.40;;;-1.70;99.90;;;;;;4954768;28;20077;-77
2021/12/23 02:19:55;;;;;;;61.42;31.33;;;-1.80;99.90;;;;;;4972078;28;20201;-78
2021/12/23 02:22:22;;;;;;;56.10;28.52;;;-1.80;99.90;;;;;;4970890;28;20062;-78
2021/12/23 02:24:48;;;;;;;54.30;30.38;;;-1.70;99.90;;;;;;4971038;28;20688;-77
2021/12/23 02:27:15;;;;;;;52.05;30.67;;;-1.60;99.90;;;;;;4971168;28;20144;-77
2021/12/23 02:29:42;;;;;;;50.67;29.15;;;-1.60;99.90;;;;;;4987861;28;20050;-78
2021/12/23 02:32:09;;;;;;;60.75;31.92;;;-1.60;99.90;;;;;;4989334;28;20050;-77
2021/12/23 02:34:36;;;;;;;50.95;27.92;;;-1.60;99.90;;;;;;4989316;28;20061;-76
2021/12/23 02:37:07;;;;;;;53.95;28.50;;;-1.60;99.90;;;;;;4970663;28;20112;-77
2021/12/23 02:39:34;;;;;;;54.38;29.50;;;-1.60;99.90;;;;;;4969421;28;20050;-77
2021/12/23 02:42:03;;;;;;;52.00;29.73;;;-1.60;99.90;;;;;;4970766;28;20042;-78
2021/12/23 02:44:29;;;;;;;52.70;29.95;;;-1.50;99.90;;;;;;4969074;28;20046;-78
2021/12/23 02:46:56;;;;;;;56.15;30.48;;;-1.50;99.90;;;;;;4967997;28;20141;-76
2021/12/23 02:49:23;;;;;;;42.63;23.42;;;-1.50;99.90;;;;;;4981204;28;20495;-76
2021/12/23 02:51:50;;;;;;;50.50;29.05;;;-1.50;99.90;;;;;;4969996;28;20072;-77
2021/12/23 02:54:17;;;;;;;49.65;26.25;;;-1.50;99.90;;;;;;4968631;28;20070;-77
2021/12/23 02:56:44;;;;;;;54.08;30.33;;;-1.50;99.90;;;;;;4986478;28;20114;-77
2021/12/23 02:59:11;;;;;;;52.45;29.38;;;-1.50;99.90;;;;;;4971074;28;20051;-77
2021/12/23 03:01:37;;;;;;;50.60;27.98;;;-1.50;99.90;;;;;;4986448;28;20081;-78
2021/12/23 03:04:05;;;;;;;59.13;29.48;;;-1.50;99.90;;;;;;4988724;28;20050;-77
2021/12/23 03:06:32;;;;;;;52.70;30.15;;;-1.60;99.90;;;;;;4988515;28;20042;-78
2021/12/23 03:09:02;;;;;;;51.08;28.92;;;-1.60;99.90;;;;;;4952711;28;20046;-77
2021/12/23 03:11:29;;;;;;;51.55;31.15;;;-1.60;99.90;;;;;;4968465;28;20109;-76
2021/12/23 03:13:57;;;;;;;53.50;31.23;;;-1.60;99.90;;;;;;4988190;28;20046;-76
2021/12/23 03:16:30;;;;;;;56.17;30.80;;;-1.60;99.90;;;;;;4980053;28;20058;-76
2021/12/23 03:18:57;;;;;;;59.88;29.98;;;-1.60;99.90;;;;;;4976364;28;20042;-78
2021/12/23 03:21:24;;;;;;;40.92;23.00;;;-1.60;99.90;;;;;;4968249;28;20047;-77
2021/12/23 03:23:51;;;;;;;57.00;30.63;;;-1.60;99.90;;;;;;4970666;28;20101;-77
2021/12/23 03:26:19;;;;;;;59.80;31.15;;;-1.60;99.90;;;;;;4949677;28;20070;-77
2021/12/23 03:28:46;;;;;;;58.38;30.90;;;-1.60;99.90;;;;;;4966459;28;20054;-78
2021/12/23 03:31:13;;;;;;;48.10;26.38;;;-1.50;99.90;;;;;;4950858;28;20055;-77
2021/12/23 03:33:39;;;;;;;56.83;30.50;;;-1.50;99.90;;;;;;4957570;28;20125;-77
2021/12/23 03:36:06;;;;;;;54.58;29.23;;;-1.40;99.90;;;;;;4970946;28;20050;-78
2021/12/23 03:38:33;;;;;;;48.70;27.85;;;-1.50;99.90;;;;;;4987184;28;20050;-77
2021/12/23 03:41:00;;;;;;;52.50;29.13;;;-1.50;99.90;;;;;;4985066;28;20434;-76
2021/12/23 03:43:29;;;;;;;45.70;26.63;;;-1.50;99.90;;;;;;4968429;28;20100;-77
2021/12/23 03:45:56;;;;;;;46.47;23.85;;;-1.40;99.90;;;;;;4984923;28;20046;-76
2021/12/23 03:48:23;;;;;;;53.58;30.27;;;-1.50;99.90;;;;;;4972950;28;20089;-79
2021/12/23 03:50:50;;;;;;;62.92;32.80;;;-1.40;99.90;;;;;;4984074;28;20561;-78
2021/12/23 03:53:18;;;;;;;54.50;33.05;;;-1.40;99.90;;;;;;4953995;28;20046;-78
2021/12/23 03:55:45;;;;;;;59.20;32.63;;;-1.30;99.90;;;;;;4985054;28;20046;-77
2021/12/23 03:58:13;;;;;;;52.85;29.90;;;-1.30;99.90;;;;;;4966846;28;20121;-77
2021/12/23 04:00:41;;;;;;;52.95;28.05;;;-1.30;99.90;;;;;;4952563;28;20050;-78
2021/12/23 04:03:07;;;;;;;68.05;31.52;;;-1.40;99.90;;;;;;4950370;28;20550;-78
2021/12/23 04:05:34;;;;;;;51.72;29.40;;;-1.40;99.90;;;;;;4972312;28;20729;-77
2021/12/23 04:08:02;;;;;;;53.97;29.52;;;-1.50;99.90;;;;;;4968536;28;20050;-77
2021/12/23 04:10:28;;;;;;;42.60;23.42;;;-1.50;99.90;;;;;;4953886;28;20054;-78
2021/12/23 04:12:55;;;;;;;56.53;29.80;;;-1.40;99.90;;;;;;4970571;28;20061;-77
2021/12/23 04:15:22;;;;;;;54.17;28.33;;;-1.40;99.90;;;;;;4969017;28;20742;-80
2021/12/23 04:17:49;;;;;;;56.50;30.58;;;-1.40;99.90;;;;;;4983170;28;20047;-78
2021/12/23 04:20:33;;;;;;;53.55;30.38;;;-1.40;99.90;;;;;;4968177;28;21343;-77
2021/12/23 04:23:01;;;;;;;53.47;30.98;;;-1.40;99.90;;;;;;4986812;28;20054;-77
2021/12/23 04:25:28;;;;;;;61.63;32.22;;;-1.40;99.90;;;;;;4971516;28;20599;-76
2021/12/23 04:27:58;;;;;;;47.65;26.27;;;-1.40;99.90;;;;;;4977147;28;20105;-78
2021/12/23 04:30:26;;;;;;;51.63;29.20;;;-1.30;99.90;;;;;;4984704;28;20737;-77
2021/12/23 04:32:53;;;;;;;53.25;26.75;;;-1.40;99.90;;;;;;4967484;28;20050;-77
2021/12/23 04:35:20;;;;;;;59.22;28.23;;;-1.30;99.90;;;;;;4968511;28;20129;-78
2021/12/23 04:37:47;;;;;;;61.58;33.97;;;-1.30;99.90;;;;;;4986428;28;20058;-77
2021/12/23 04:40:14;;;;;;;53.78;30.38;;;-1.30;99.90;;;;;;4965515;28;20051;-77
2021/12/23 04:42:42;;;;;;;54.72;30.10;;;-1.30;99.90;;;;;;4964345;28;20055;-77
2021/12/23 04:45:09;;;;;;;50.85;29.25;;;-1.30;99.90;;;;;;4963224;28;20134;-77
2021/12/23 04:47:36;;;;;;;56.22;31.08;;;-1.30;99.90;;;;;;4974878;28;20132;-77
2021/12/23 04:50:05;;;;;;;57.03;31.52;;;-1.20;99.90;;;;;;4964684;28;20101;-77
2021/12/23 04:52:32;;;;;;;56.92;29.65;;;-1.30;99.90;;;;;;4967746;28;20712;-78
2021/12/23 04:54:59;;;;;;;57.35;29.45;;;-1.30;99.90;;;;;;4968852;28;20618;-78
2021/12/23 04:57:26;;;;;;;45.22;25.65;;;-1.20;99.90;;;;;;4958403;28;20054;-77
2021/12/23 04:59:53;;;;;;;56.90;29.60;;;-1.30;99.90;;;;;;4967000;28;20657;-78
2021/12/23 05:02:19;;;;;;;51.40;29.45;;;-1.30;99.90;;;;;;4983924;28;20143;-79
2021/12/23 05:04:50;;;;;;;51.05;29.02;;;-1.30;99.90;;;;;;4982058;28;20125;-80
2021/12/23 05:07:18;;;;;;;59.47;31.48;;;-1.30;99.90;;;;;;4965335;28;20676;-79
2021/12/23 05:09:46;;;;;;;57.17;32.35;;;-1.30;99.90;;;;;;4966299;28;20105;-77
2021/12/23 05:12:13;;;;;;;51.78;27.60;;;-1.20;99.90;;;;;;4972562;28;20050;-79
2021/12/23 05:14:40;;;;;;;61.03;31.80;;;-1.30;99.90;;;;;;4965581;28;20469;-79
2021/12/23 05:17:07;;;;;;;62.58;32.20;;;-1.30;99.90;;;;;;4965069;28;20100;-76
2021/12/23 05:19:34;;;;;;;41.58;23.83;;;-1.30;99.90;;;;;;4982397;28;20104;-77
2021/12/23 05:22:01;;;;;;;56.45;30.98;;;-1.30;99.90;;;;;;4966997;28;20068;-78
2021/12/23 05:24:27;;;;;;;59.47;33.03;;;-1.40;99.90;;;;;;4966803;28;20852;-79
2021/12/23 05:26:54;;;;;;;61.42;33.55;;;-1.50;99.90;;;;;;4969348;28;20108;-77
2021/12/23 05:29:21;;;;;;;63.47;33.67;;;-1.50;99.90;;;;;;4946008;28;20096;-80
2021/12/23 05:31:48;;;;;;;51.35;29.98;;;-1.50;99.90;;;;;;4977366;28;20073;-79
2021/12/23 05:34:15;;;;;;;63.25;34.10;;;-1.60;99.90;;;;;;4983429;28;20046;-77
2021/12/23 05:36:42;;;;;;;63.00;34.95;;;-1.60;99.90;;;;;;4982888;28;20624;-78
2021/12/23 05:39:10;;;;;;;63.45;33.38;;;-1.60;99.90;;;;;;4984908;28;20042;-80
2021/12/23 05:41:37;;;;;;;65.85;35.50;;;-1.60;99.90;;;;;;4983284;28;20047;-76
2021/12/23 05:44:04;;;;;;;68.95;37.45;;;-1.60;99.90;;;;;;4980027;28;20625;-79
2021/12/23 05:46:31;;;;;;;71.72;37.65;;;-1.60;99.90;;;;;;4983537;28;20145;-76
2021/12/23 05:48:57;;;;;;;54.95;29.40;;;-1.70;99.90;;;;;;4959682;28;20042;-79
2021/12/23 05:51:24;;;;;;;66.93;35.63;;;-1.70;99.90;;;;;;5013931;23;20069;-78
2021/12/23 05:53:51;;;;;;;70.13;37.05;;;-1.70;99.90;;;;;;4970083;28;20184;-78
2021/12/23 05:56:18;;;;;;;66.03;37.50;;;-1.70;99.90;;;;;;4980439;28;20059;-78
2021/12/23 05:58:44;;;;;;;52.53;27.02;;;-1.80;99.90;;;;;;4988882;28;20052;-78
2021/12/23 06:01:11;;;;;;;73.55;38.83;;;-1.80;99.90;;;;;;4979114;28;20046;-78
2021/12/23 06:03:40;;;;;;;67.40;37.60;;;-1.80;99.90;;;;;;4981083;28;20053;-78
2021/12/23 06:06:06;;;;;;;68.05;37.42;;;-1.80;99.90;;;;;;4981979;28;20339;-78
2021/12/23 06:08:39;;;;;;;71.05;36.50;;;-1.80;99.90;;;;;;4983368;28;20054;-78
2021/12/23 06:11:06;;;;;;;72.22;38.63;;;-1.80;99.90;;;;;;4998032;28;20069;-78
2021/12/23 06:13:33;;;;;;;77.05;37.83;;;-1.80;99.90;;;;;;4983032;28;20486;-78
2021/12/23 06:16:00;;;;;;;70.55;35.47;;;-1.80;99.90;;;;;;4983325;28;20477;-78
2021/12/23 06:18:27;;;;;;;66.82;35.75;;;-1.80;99.90;;;;;;4973190;28;20519;-78
2021/12/23 06:20:54;;;;;;;74.03;37.72;;;-1.80;99.90;;;;;;4983644;28;20430;-79
2021/12/23 06:23:21;;;;;;;70.70;33.22;;;-1.80;99.90;;;;;;4980983;28;20041;-79
2021/12/23 06:25:48;;;;;;;71.50;37.03;;;-1.90;99.90;;;;;;4989419;28;20042;-78
2021/12/23 06:28:14;;;;;;;72.50;38.35;;;-1.90;99.90;;;;;;4965189;28;20050;-78
2021/12/23 06:30:41;;;;;;;64.75;33.28;;;-2.00;99.90;;;;;;4982924;28;20073;-80
2021/12/23 06:33:08;;;;;;;72.82;35.88;;;-2.00;99.90;;;;;;4985603;28;20042;-79
2021/12/23 06:35:37;;;;;;;72.45;34.88;;;-2.00;99.90;;;;;;4985221;28;20112;-79
2021/12/23 06:38:07;;;;;;;79.78;39.60;;;-2.00;99.90;;;;;;4984571;28;20051;-79
2021/12/23 06:40:34;;;;;;;61.08;33.33;;;-2.10;99.90;;;;;;4986646;28;20401;-79
2021/12/23 06:43:02;;;;;;;68.63;35.40;;;-2.00;99.90;;;;;;4985174;28;20419;-79
2021/12/23 06:45:29;;;;;;;73.28;39.28;;;-2.00;99.90;;;;;;4984815;28;20042;-79
2021/12/23 06:47:55;;;;;;;77.30;37.08;;;-2.00;99.90;;;;;;4984502;28;20038;-79
2021/12/23 06:50:22;;;;;;;70.70;36.08;;;-2.00;99.90;;;;;;4968148;28;20081;-79
2021/12/23 06:52:50;;;;;;;61.97;30.42;;;-2.00;99.90;;;;;;4965185;28;20059;-79
2021/12/23 06:55:18;;;;;;;74.10;36.60;;;-2.00;99.90;;;;;;4974986;28;20113;-79
2021/12/23 06:57:46;;;;;;;75.97;40.72;;;-2.00;99.90;;;;;;4985373;28;20053;-79
2021/12/23 07:00:17;;;;;;;72.22;36.55;;;-2.00;99.90;;;;;;4982499;28;20144;-77
2021/12/23 07:02:44;;;;;;;72.95;40.40;;;-2.00;99.90;;;;;;4997993;28;20494;-77
2021/12/23 07:05:12;;;;;;;82.10;39.90;;;-2.00;99.90;;;;;;4982241;28;20038;-78
2021/12/23 07:08:26;;;;;;;56.65;28.70;;;-2.00;99.90;;;;;;4986140;28;20277;-80
2021/12/23 07:10:30;;;;;;;76.05;41.03;;;-1.90;99.90;;;;;;4986004;28;20054;-79
2021/12/23 07:12:58;;;;;;;62.88;31.52;;;-2.00;99.90;;;;;;4990595;28;20112;-80
2021/12/23 07:15:25;;;;;;;71.18;35.75;;;-2.00;99.90;;;;;;4988068;28;20051;-80
2021/12/23 07:17:57;;;;;;;79.25;38.30;;;-2.00;99.90;;;;;;4987377;28;20502;-80
2021/12/23 07:20:25;;;;;;;80.22;40.05;;;-2.00;99.90;;;;;;5001201;28;20147;-78
2021/12/23 07:22:52;;;;;;;69.45;34.50;;;-2.00;99.90;;;;;;4989923;28;20588;-80
2021/12/23 07:25:20;;;;;;;76.07;38.47;;;-2.00;99.90;;;;;;4987724;28;20042;-80
2021/12/23 07:27:47;;;;;;;81.88;39.85;;;-1.90;99.90;;;;;;4969376;28;20051;-79
2021/12/23 07:30:18;;;;;;;66.15;32.75;;;-1.90;99.90;;;;;;4970333;28;20054;-79
2021/12/23 07:32:46;;;;;;;85.68;41.78;;;-2.00;99.90;;;;;;4988021;28;20404;-80
2021/12/23 07:35:13;;;;;;;84.57;42.50;;;-2.00;99.90;;;;;;5005626;28;20153;-78
2021/12/23 07:37:43;;;;;;;80.25;40.85;;;-1.90;99.90;;;;;;4987474;28;20478;-80
2021/12/23 07:40:13;;;;;;;84.88;42.53;;;-1.90;99.90;;;;;;4989068;28;20046;-78
2021/12/23 07:42:51;;;;;;;85.78;42.80;;;-1.90;99.90;;;;;;4999481;28;20085;-77
2021/12/23 07:45:20;;;;;;;82.75;38.58;;;-1.90;99.90;;;;;;4985106;28;20058;-81
2021/12/23 07:47:47;;;;;;;86.25;43.95;;;-1.80;99.90;;;;;;4987727;28;20064;-81
2021/12/23 07:50:13;;;;;;;83.50;40.80;;;-1.80;99.90;;;;;;4970017;28;20046;-81
2021/12/23 07:52:40;;;;;;;79.68;40.00;;;-1.80;99.90;;;;;;4994152;28;20050;-81
2021/12/23 07:55:08;;;;;;;88.10;43.65;;;-1.80;99.90;;;;;;4987590;28;20498;-81
2021/12/23 07:57:39;;;;;;;87.05;43.03;;;-1.80;99.90;;;;;;4988537;28;20434;-81
2021/12/23 08:00:07;;;;;;;82.57;38.50;;;-1.80;99.90;;;;;;4991652;28;20832;-81
2021/12/23 08:02:40;;;;;;;83.63;43.63;;;-1.80;99.90;;;;;;4995875;28;20077;-80
2021/12/23 08:05:08;;;;;;;83.72;42.45;;;-1.80;99.90;;;;;;4992515;28;20046;-82
2021/12/23 08:07:34;;;;;;;84.57;43.22;;;-1.80;99.90;;;;;;4992279;28;20287;-80
2021/12/23 08:10:02;;;;;;;78.40;38.20;;;-1.80;99.90;;;;;;4986639;28;20535;-81
2021/12/23 08:12:29;;;;;;;90.78;44.75;;;-1.80;99.90;;;;;;5000898;28;20050;-81
2021/12/23 08:14:56;;;;;;;92.60;46.63;;;-1.80;99.90;;;;;;4984173;28;20158;-80
2021/12/23 08:17:34;;;;;;;89.05;43.28;;;-1.70;99.90;;;;;;4985715;28;20403;-82
2021/12/23 08:20:01;;;;;;;78.82;36.63;;;-1.70;99.90;;;;;;4979753;28;20167;-80
2021/12/23 08:22:28;;;;;;;87.80;43.75;;;-1.80;99.90;;;;;;5007228;28;20144;-82
2021/12/23 08:24:54;;;;;;;91.22;44.88;;;-1.70;99.90;;;;;;5025452;28;20037;-82
2021/12/23 08:27:29;;;;;;;88.10;44.55;;;-1.70;99.90;;;;;;5014600;28;20054;-82
2021/12/23 08:29:56;;;;;;;81.90;43.08;;;-1.70;99.90;;;;;;4992186;28;20208;-82
2021/12/23 08:32:23;;;;;;;89.93;43.05;;;-1.70;99.90;;;;;;4979127;28;20054;-83
2021/12/23 08:34:50;;;;;;;91.82;44.65;;;-1.70;99.90;;;;;;4995627;28;20317;-82
2021/12/23 08:37:16;;;;;;;87.82;45.80;;;-1.70;99.90;;;;;;4973534;28;20401;-83
2021/12/23 08:39:47;;;;;;;90.78;45.58;;;-1.70;99.90;;;;;;4976931;28;20046;-83
2021/12/23 08:42:14;;;;;;;85.63;42.72;;;-1.60;99.90;;;;;;4979921;28;20097;-82
2021/12/23 08:44:41;;;;;;;85.20;44.35;;;-1.60;99.90;;;;;;4997504;28;20399;-83
2021/12/23 08:47:09;;;;;;;90.07;45.83;;;-1.60;99.90;;;;;;4991300;28;20049;-83
2021/12/23 08:49:37;;;;;;;82.53;42.75;;;-1.50;99.90;;;;;;4991204;28;20061;-82
2021/12/23 08:52:04;;;;;;;92.95;46.80;;;-1.60;99.90;;;;;;4977677;28;20058;-83
2021/12/23 08:54:31;;;;;;;92.03;44.30;;;-1.50;99.90;;;;;;4993390;28;20532;-82
2021/12/23 08:56:58;;;;;;;86.40;44.47;;;-1.50;99.90;;;;;;4993800;28;20058;-82
2021/12/23 08:59:26;;;;;;;89.07;44.40;;;-1.50;99.90;;;;;;4994869;28;20045;-82
2021/12/23 09:01:55;;;;;;;89.18;47.08;;;-1.40;99.90;;;;;;4992140;28;20077;-83
2021/12/23 09:04:22;;;;;;;91.63;46.45;;;-1.30;99.90;;;;;;4990190;28;20046;-82
2021/12/23 09:06:49;;;;;;;86.13;45.25;;;-1.30;99.90;;;;;;4990705;28;20046;-78
2021/12/23 09:09:17;;;;;;;84.72;43.92;;;-1.40;99.90;;;;;;4989310;28;20097;-82
2021/12/23 09:11:44;;;;;;;83.70;42.70;;;-1.20;99.90;;;;;;4990161;28;20683;-82
2021/12/23 09:14:11;;;;;;;85.35;42.15;;;-1.30;99.90;;;;;;4993485;28;20179;-82
2021/12/23 09:16:38;;;;;;;81.22;43.30;;;-1.20;99.90;;;;;;4993137;28;20054;-82
2021/12/23 09:19:05;;;;;;;91.40;46.03;;;-1.10;99.90;;;;;;4994161;28;20105;-83
2021/12/23 09:21:33;;;;;;;81.28;43.03;;;-1.10;99.90;;;;;;4995093;28;20110;-83
2021/12/23 09:24:02;;;;;;;88.57;43.75;;;-1.00;99.90;;;;;;5013769;28;20117;-82
2021/12/23 09:26:32;;;;;;;73.05;38.70;;;-0.90;99.90;;;;;;5011961;28;20050;-83
2021/12/23 09:29:10;;;;;;;85.93;41.55;;;-0.90;99.90;;;;;;4997259;28;20046;-82
2021/12/23 09:34:24;;;;;;;74.40;41.00;;;-1.00;99.90;;;;;;4988191;28;20130;-82
2021/12/23 09:36:50;;;;;;;81.47;42.47;;;-0.90;99.90;;;;;;4972767;28;20615;-82
2021/12/23 09:39:17;;;;;;;84.13;43.90;;;-0.90;99.90;;;;;;4975239;28;20047;-83
2021/12/23 09:41:46;;;;;;;79.75;42.92;;;-0.80;99.90;;;;;;4975599;28;20054;-82
2021/12/23 09:44:15;;;;;;;82.88;43.38;;;-0.70;99.90;;;;;;4995084;28;20153;-82
2021/12/23 09:46:42;;;;;;;85.50;42.38;;;-0.70;99.90;;;;;;4997103;28;20035;-83
2021/12/23 09:49:09;;;;;;;88.38;42.90;;;-0.70;99.90;;;;;;4986010;28;20077;-82
2021/12/23 09:51:37;;;;;;;81.53;41.42;;;-0.70;99.90;;;;;;4999057;28;20236;-82
2021/12/23 09:54:08;;;;;;;79.20;42.05;;;-0.60;99.90;;;;;;4991124;28;20031;-83
2021/12/23 09:56:35;;;;;;;100.15;45.80;;;-0.60;99.90;;;;;;5003967;28;20046;-81
2021/12/23 09:59:06;;;;;;;82.25;40.58;;;-0.50;99.90;;;;;;4989920;28;20034;-81
2021/12/23 10:01:34;;;;;;;77.85;41.95;;;-0.50;99.90;;;;;;4990602;28;20081;-81
2021/12/23 10:04:02;;;;;;;85.13;44.05;;;-0.50;99.90;;;;;;4978709;28;20133;-80
2021/12/23 10:06:29;;;;;;;83.53;45.47;;;-0.40;99.90;;;;;;4996572;28;20062;-80
2021/12/23 10:08:56;;;;;;;84.53;42.13;;;-0.40;99.90;;;;;;4971286;28;20061;-81
2021/12/23 10:31:04;;;;;;;83.78;42.15;;;-0.50;99.90;;;;;;4988262;28;20050;-80
2021/12/23 10:37:05;;;;;;;83.05;43.67;;;-0.50;99.90;;;;;;4984603;28;20150;-81
2021/12/23 10:39:24;;;;;;;;;;;-0.40;99.90;;;;;;4994459;28;20707;-81
2021/12/23 10:42:06;;;;;;;96.05;43.90;;;-0.40;99.90;;;;;;4982239;28;19925;-81
2021/12/23 10:44:33;;;;;;;86.57;44.30;;;-0.30;99.90;;;;;;4983524;28;20133;-80
2021/12/23 10:47:00;;;;;;;89.18;46.10;;;-0.30;99.90;;;;;;4969310;28;20046;-80
2021/12/23 10:49:39;;;;;;;80.90;40.88;;;-0.20;99.90;;;;;;4961523;28;20046;-81
2021/12/23 10:52:19;;;;;;;82.38;43.78;;;-0.10;99.90;;;;;;4965266;28;20058;-80
2021/12/23 11:00:27;;;;;;;87.90;45.15;;;-0.10;99.90;;;;;;4989587;28;20468;-81
2021/12/23 11:03:24;;;;;;;87.75;42.03;;;-0.10;99.90;;;;;;4987688;28;20062;-81
2021/12/23 11:42:33;;;;;;;84.82;44.08;;;0.20;99.90;;;;;;4988278;28;20051;-79
2021/12/23 11:45:00;;;;;;;73.15;37.55;;;0.20;99.90;;;;;;4973433;28;20043;-80
2021/12/23 11:47:28;;;;;;;82.95;43.95;;;0.30;99.90;;;;;;4990560;28;20043;-80
2021/12/23 11:49:56;;;;;;;78.82;39.92;;;0.30;99.90;;;;;;4986977;28;20311;-79
2021/12/23 11:52:23;;;;;;;75.82;40.92;;;0.30;99.90;;;;;;4996588;23;20051;-69
2021/12/23 11:54:49;;;;;;;75.88;36.83;;;0.30;99.90;;;;;;4949855;28;20479;-69
2021/12/23 11:57:31;;;;;;;82.82;42.67;;;0.20;99.90;;;;;;4953143;28;20038;-69
2021/12/23 12:00:17;;;;;;;83.40;40.80;;;0.20;99.90;;;;;;4967147;28;20042;-69
2021/12/23 12:03:00;;;;;;;81.78;39.47;;;0.20;99.90;;;;;;4972598;28;20046;-69
2021/12/23 12:05:27;;;;;;;75.40;38.38;;;0.10;99.90;;;;;;4973680;28;20359;-70
2021/12/23 12:08:23;;;;;;;77.82;38.58;;;0.20;99.90;;;;;;4989049;28;20409;-69
2021/12/23 12:10:50;;;;;;;89.25;44.40;;;0.20;99.90;;;;;;4972249;28;20065;-69
2021/12/23 12:13:17;;;;;;;76.28;41.38;;;0.20;99.90;;;;;;4974858;28;20081;-70
2021/12/23 12:15:50;;;;;;;82.68;41.63;;;0.20;99.90;;;;;;4970902;28;20583;-69
2021/12/23 12:18:22;;;;;;;81.80;39.53;;;0.20;99.90;;;;;;4971998;28;20038;-70
2021/12/23 12:20:58;;;;;;;83.03;39.97;;;0.10;99.90;;;;;;4986546;28;20045;-70
2021/12/23 12:23:30;;;;;;;85.85;42.97;;;0.20;99.90;;;;;;4988594;28;20287;-68
2021/12/23 12:26:03;;;;;;;80.55;39.42;;;0.20;99.90;;;;;;4974536;28;20054;-69
2021/12/23 12:28:37;;;;;;;81.97;42.72;;;0.10;99.90;;;;;;4973787;28;20050;-69
2021/12/23 12:31:20;;;;;;;86.18;41.88;;;0.20;99.90;;;;;;4972773;28;20495;-70
2021/12/23 12:34:08;;;;;;;83.90;42.42;;;0.20;99.90;;;;;;4972360;28;20508;-69
2021/12/23 12:36:48;;;;;;;74.10;37.22;;;0.20;99.90;;;;;;4955446;28;20058;-70
2021/12/23 12:39:24;;;;;;;79.35;40.70;;;0.20;99.90;;;;;;4973795;28;20058;-70
2021/12/23 12:42:02;;;;;;;81.70;40.45;;;0.30;99.90;;;;;;4986740;28;20061;-70
2021/12/23 12:44:50;;;;;;;84.40;41.42;;;0.40;99.90;;;;;;4970626;28;20539;-70
2021/12/23 12:47:26;;;;;;;84.00;40.78;;;0.40;99.90;;;;;;4971506;28;20049;-70
2021/12/23 12:50:15;;;;;;;86.22;42.42;;;0.40;99.90;;;;;;4969934;28;20057;-69
2021/12/23 12:52:45;;;;;;;86.57;43.50;;;0.40;99.90;;;;;;4972902;28;20104;-68
2021/12/23 12:55:25;;;;;;;84.30;40.88;;;0.40;99.90;;;;;;4988049;28;20042;-70
2021/12/23 12:57:53;;;;;;;79.07;39.08;;;0.50;99.90;;;;;;4973202;28;20108;-69
2021/12/23 13:00:24;;;;;;;85.93;43.38;;;0.60;99.90;;;;;;4986953;28;20042;-70
2021/12/23 13:02:55;;;;;;;80.53;42.78;;;0.60;99.90;;;;;;4973119;28;20056;-69
2021/12/23 13:05:34;;;;;;;85.57;41.88;;;0.70;99.90;;;;;;4971624;28;20054;-70
2021/12/23 13:08:28;;;;;;;80.38;42.47;;;0.70;99.90;;;;;;4971555;28;20409;-69
2021/12/23 13:11:07;;;;;;;76.85;40.90;;;0.80;99.90;;;;;;4972399;28;20050;-70
2021/12/23 13:13:42;;;;;;;78.82;41.38;;;0.80;99.90;;;;;;4972910;28;20160;-70
2021/12/23 13:16:30;;;;;;;84.60;43.70;;;0.80;99.90;;;;;;4971497;28;20134;-69
2021/12/23 13:19:31;;;;;;;79.03;39.97;;;0.80;99.90;;;;;;4958488;28;20043;-69
2021/12/23 13:21:59;;;;;;;78.70;38.17;;;0.80;99.90;;;;;;4946933;28;20374;-70
2021/12/23 13:24:28;;;;;;;78.15;39.38;;;0.90;99.90;;;;;;4988105;28;20427;-70
2021/12/23 13:26:56;;;;;;;79.22;39.85;;;0.80;99.90;;;;;;4972089;28;20058;-70
2021/12/23 13:29:28;;;;;;;79.20;39.90;;;0.80;99.90;;;;;;4987712;28;20061;-70
2021/12/23 13:31:57;;;;;;;89.38;43.40;;;0.80;99.90;;;;;;4972353;28;20649;-69
2021/12/23 13:34:26;;;;;;;80.55;37.90;;;0.80;99.90;;;;;;4973270;28;20058;-70
2021/12/23 13:36:56;;;;;;;81.05;40.67;;;0.80;99.90;;;;;;4971928;28;20046;-69
2021/12/23 13:39:26;;;;;;;86.72;41.30;;;0.80;99.90;;;;;;4972845;28;20128;-70
2021/12/23 13:41:57;;;;;;;82.10;42.13;;;0.80;99.90;;;;;;4971444;28;20208;-69
2021/12/23 13:44:27;;;;;;;96.30;44.20;;;0.90;99.90;;;;;;4971671;28;20050;-69
2021/12/23 13:47:08;;;;;;;95.50;46.63;;;1.00;99.90;;;;;;4969357;28;20054;-70
2021/12/23 13:49:37;;;;;;;101.90;48.83;;;1.00;99.90;;;;;;4984716;28;20313;-70
2021/12/23 13:52:07;;;;;;;93.00;46.40;;;1.00;99.90;;;;;;4986267;28;20148;-70
2021/12/23 13:54:39;;;;;;;79.35;43.95;;;1.00;99.90;;;;;;4972891;28;20069;-70
2021/12/23 13:57:12;;;;;;;83.28;42.45;;;1.10;99.90;;;;;;4967432;28;20583;-71
2021/12/23 13:59:39;;;;;;;102.28;52.22;;;1.10;99.90;;;;;;4971678;28;20089;-70